sensor_id;sensor_type;location;lat;lon;timestamp;temperature;humidity
20773;DHT22;10546;50.674;4.616;2023-11-22T06:57:25;5.40;99.90
20773;DHT22;10546;50.674;4.616;2023-11-22T06:59:55;5.40;99.90
20773;DHT22;10546;50.674;4.616;2023-11-22T07:02:20;5.60;99.90
20773;DHT22;10546;50.674;4.616;2023-11-22T07:04:46;5.70;99.90
20773;DHT22;10546;50.674;4.616;2023-11-22T07:07:12;5.50;99.90
20773;DHT22;10546;50.674;4.616;2023-11-22T07:09:42;5.50;99.90
20773;DHT22;10546;50.674;4.616;2023-11-22T07:12:07;5.60;99.90
20773;DHT22;10546;50.674;4.616;2023-11-22T07:14:33;5.60;99.90
20773;DHT22;10546;50.674;4.616;2023-11-22T07:16:58;5.50;99.90
20773;DHT22;10546;50.674;4.616;2023-11-22T07:19:25;5.60;99.90
20773;DHT22;10546;50.674;4.616;2023-11-22T07:21:50;5.60;99.90
20773;DHT22;10546;50.674;4.616;2023-11-22T07:24:17;5.50;99.90
20773;DHT22;10546;50.674;4.616;2023-11-22T07:26:44;5.70;99.90
20773;DHT22;10546;50.674;4.616;2023-11-22T07:29:09;5.60;99.90
20773;DHT22;10546;50.674;4.616;2023-11-22T07:31:37;5.50;99.90
20773;DHT22;10546;50.674;4.616;2023-11-22T07:34:03;5.50;99.90
20773;DHT22;10546;50.674;4.616;2023-11-22T07:36:29;5.50;99.90
20773;DHT22;10546;50.674;4.616;2023-11-22T07:38:56;5.60;99.90
20773;DHT22;10546;50.674;4.616;2023-11-22T07:41:22;5.70;99.90
20773;DHT22;10546;50.674;4.616;2023-11-22T07:43:48;5.60;99.90
20773;DHT22;10546;50.674;4.616;2023-11-22T07:46:15;5.60;99.90
20773;DHT22;10546;50.674;4.616;2023-11-22T07:48:43;5.60;99.90
20773;DHT22;10546;50.674;4.616;2023-11-22T07:51:08;5.70;99.90
20773;DHT22;10546;50.674;4.616;2023-11-22T07:53:34;5.60;99.90
20773;DHT22;10546;50.674;4.616;2023-11-22T07:56:03;5.60;99.90
20773;DHT22;10546;50.674;4.616;2023-11-22T07:58:34;5.70;99.90
20773;DHT22;10546;50.674;4.616;2023-11-22T08:01:00;5.60;99.90
20773;DHT22;10546;50.674;4.616;2023-11-22T08:03:29;5.80;99.90
20773;DHT22;10546;50.674;4.616;2023-11-22T08:05:55;6.00;99.90
20773;DHT22;10546;50.674;4.616;2023-11-22T08:08:21;6.10;99.90
20773;DHT22;10546;50.674;4.616;2023-11-22T08:10:48;6.00;99.90
20773;DHT22;10546;50.674;4.616;2023-11-22T08:13:14;6.10;99.90
20773;DHT22;10546;50.674;4.616;2023-11-22T08:15:41;6.10;99.90
20773;DHT22;10546;50.674;4.616;2023-11-22T08:18:07;5.80;99.90
20773;DHT22;10546;50.674;4.616;2023-11-22T08:20:33;5.80;99.90
20773;DHT22;10546;50.674;4.616;2023-11-22T08:22:58;5.70;99.90
20773;DHT22;10546;50.674;4.616;2023-11-22T08:25:24;5.60;99.90
20773;DHT22;10546;50.674;4.616;2023-11-22T08:27:50;5.60;99.90
20773;DHT22;10546;50.674;4.616;2023-11-22T08:30:18;5.60;99.90
20773;DHT22;10546;50.674;4.616;2023-11-22T08:32:46;5.60;99.90
20773;DHT22;10546;50.674;4.616;2023-11-22T08:35:19;5.60;99.90
20773;DHT22;10546;50.674;4.616;2023-11-22T08:37:47;5.40;99.90
20773;DHT22;10546;50.674;4.616;2023-11-22T08:40:13;5.40;99.90
20773;DHT22;10546;50.674;4.616;2023-11-22T08:42:46;5.50;99.90
20773;DHT22;10546;50.674;4.616;2023-11-22T08:45:11;5.40;99.90
20773;DHT22;10546;50.674;4.616;2023-11-22T08:47:40;5.40;99.90
20773;DHT22;10546;50.674;4.616;2023-11-22T08:50:07;5.60;99.90
20773;DHT22;10546;50.674;4.616;2023-11-22T08:52:34;5.70;99.90
20773;DHT22;10546;50.674;4.616;2023-11-22T08:54:59;5.70;99.90
20773;DHT22;10546;50.674;4.616;2023-11-22T08:57:26;5.70;99.90
20773;DHT22;10546;50.674;4.616;2023-11-22T08:59:52;5.80;99.90
20773;DHT22;10546;50.674;4.616;2023-11-22T09:02:19;5.90;99.90
20773;DHT22;10546;50.674;4.616;2023-11-22T09:04:47;6.10;99.90
20773;DHT22;10546;50.674;4.616;2023-11-22T09:07:13;6.10;99.90
20773;DHT22;10546;50.674;4.616;2023-11-22T09:09:41;6.10;99.90
20773;DHT22;10546;50.674;4.616;2023-11-22T09:12:08;6.10;99.90
20773;DHT22;10546;50.674;4.616;2023-11-22T09:14:39;6.10;99.90
20773;DHT22;10546;50.674;4.616;2023-11-22T09:17:06;6.10;99.90
20773;DHT22;10546;50.674;4.616;2023-11-22T09:19:32;6.10;99.90
20773;DHT22;10546;50.674;4.616;2023-11-22T09:21:59;6.00;99.90
20773;DHT22;10546;50.674;4.616;2023-11-22T09:24:25;5.90;99.90
20773;DHT22;10546;50.674;4.616;2023-11-22T09:26:52;6.20;99.90
20773;DHT22;10546;50.674;4.616;2023-11-22T09:29:17;6.50;99.90
20773;DHT22;10546;50.674;4.616;2023-11-22T09:31:44;6.60;99.90
20773;DHT22;10546;50.674;4.616;2023-11-22T09:34:12;6.70;99.90
20773;DHT22;10546;50.674;4.616;2023-11-22T09:36:39;6.90;99.90
20773;DHT22;10546;50.674;4.616;2023-11-22T09:39:05;7.10;99.90
20773;DHT22;10546;50.674;4.616;2023-11-22T09:41:37;7.10;99.90
20773;DHT22;10546;50.674;4.616;2023-11-22T09:44:03;7.10;99.90
20773;DHT22;10546;50.674;4.616;2023-11-22T09:46:30;7.10;99.90
20773;DHT22;10546;50.674;4.616;2023-11-22T09:48:57;7.20;99.90
20773;DHT22;10546;50.674;4.616;2023-11-22T09:51:29;7.30;99.90
20773;DHT22;10546;50.674;4.616;2023-11-22T09:53:59;7.40;99.90
20773;DHT22;10546;50.674;4.616;2023-11-22T09:56:27;7.50;99.90
20773;DHT22;10546;50.674;4.616;2023-11-22T09:58:54;7.80;99.90
20773;DHT22;10546;50.674;4.616;2023-11-22T10:01:22;8.00;99.90
20773;DHT22;10546;50.674;4.616;2023-11-22T10:03:48;8.00;99.90
20773;DHT22;10546;50.674;4.616;2023-11-22T10:06:14;8.10;99.90
20773;DHT22;10546;50.674;4.616;2023-11-22T10:08:41;8.20;99.90
20773;DHT22;10546;50.674;4.616;2023-11-22T10:11:07;8.00;99.90
20773;DHT22;10546;50.674;4.616;2023-11-22T10:13:33;7.90;99.90
20773;DHT22;10546;50.674;4.616;2023-11-22T10:16:10;7.90;99.90
20773;DHT22;10546;50.674;4.616;2023-11-22T10:18:43;7.80;99.90
20773;DHT22;10546;50.674;4.616;2023-11-22T10:21:38;7.80;99.90
20773;DHT22;10546;50.674;4.616;2023-11-22T10:24:05;8.00;99.90
20773;DHT22;10546;50.674;4.616;2023-11-22T10:26:35;8.10;99.90
20773;DHT22;10546;50.674;4.616;2023-11-22T10:29:01;8.00;99.90
20773;DHT22;10546;50.674;4.616;2023-11-22T10:31:27;7.80;99.90
20773;DHT22;10546;50.674;4.616;2023-11-22T10:33:53;7.90;99.90
20773;DHT22;10546;50.674;4.616;2023-11-22T10:36:22;8.10;99.90
20773;DHT22;10546;50.674;4.616;2023-11-22T10:38:49;8.00;99.90
20773;DHT22;10546;50.674;4.616;2023-11-22T10:41:16;7.90;99.90
20773;DHT22;10546;50.674;4.616;2023-11-22T10:43:41;7.80;99.90
20773;DHT22;10546;50.674;4.616;2023-11-22T10:46:08;7.80;99.90
20773;DHT22;10546;50.674;4.616;2023-11-22T10:48:36;8.00;99.90
20773;DHT22;10546;50.674;4.616;2023-11-22T10:51:04;8.10;99.90
20773;DHT22;10546;50.674;4.616;2023-11-22T10:53:34;8.40;99.90
20773;DHT22;10546;50.674;4.616;2023-11-22T10:56:15;8.50;99.90
20773;DHT22;10546;50.674;4.616;2023-11-22T10:58:49;8.60;99.90
20773;DHT22;10546;50.674;4.616;2023-11-22T11:01:16;8.60;99.90
20773;DHT22;10546;50.674;4.616;2023-11-22T11:03:46;8.60;99.90
20773;DHT22;10546;50.674;4.616;2023-11-22T11:06:20;8.10;99.90
20773;DHT22;10546;50.674;4.616;2023-11-22T11:08:47;7.70;99.90
20773;DHT22;10546;50.674;4.616;2023-11-22T11:11:17;7.70;99.90
20773;DHT22;10546;50.674;4.616;2023-11-22T11:13:43;7.70;99.90
20773;DHT22;10546;50.674;4.616;2023-11-22T11:16:09;7.80;99.90
20773;DHT22;10546;50.674;4.616;2023-11-22T11:18:35;7.80;99.90
20773;DHT22;10546;50.674;4.616;2023-11-22T11:21:08;8.00;99.90
20773;DHT22;10546;50.674;4.616;2023-11-22T11:23:34;8.40;99.90
20773;DHT22;10546;50.674;4.616;2023-11-22T11:26:09;9.20;99.90
20773;DHT22;10546;50.674;4.616;2023-11-22T11:28:46;9.90;99.90
20773;DHT22;10546;50.674;4.616;2023-11-22T11:31:13;10.20;99.90
20773;DHT22;10546;50.674;4.616;2023-11-22T11:36:28;11.10;99.90
20773;DHT22;10546;50.674;4.616;2023-11-22T11:38:56;11.60;99.90
20773;DHT22;10546;50.674;4.616;2023-11-22T11:41:34;11.90;99.90
20773;DHT22;10546;50.674;4.616;2023-11-22T11:44:03;11.80;99.90
20773;DHT22;10546;50.674;4.616;2023-11-22T11:46:30;11.20;99.90
20773;DHT22;10546;50.674;4.616;2023-11-22T11:48:56;10.50;99.90
20773;DHT22;10546;50.674;4.616;2023-11-22T11:51:24;10.40;99.90
20773;DHT22;10546;50.674;4.616;2023-11-22T11:57:01;10.10;99.90
20773;DHT22;10546;50.674;4.616;2023-11-22T11:59:27;10.00;99.90
20773;DHT22;10546;50.674;4.616;2023-11-22T12:01:55;10.20;99.90
20773;DHT22;10546;50.674;4.616;2023-11-22T12:04:24;10.20;99.90
20773;DHT22;10546;50.674;4.616;2023-11-22T12:06:51;10.40;99.90
20773;DHT22;10546;50.674;4.616;2023-11-22T12:09:24;9.00;99.90
20773;DHT22;10546;50.674;4.616;2023-11-22T12:11:51;8.90;99.90
20773;DHT22;10546;50.674;4.616;2023-11-22T12:14:19;8.50;99.90
20773;DHT22;10546;50.674;4.616;2023-11-22T12:16:45;8.50;99.90
20773;DHT22;10546;50.674;4.616;2023-11-22T12:19:24;8.70;99.90
20773;DHT22;10546;50.674;4.616;2023-11-22T12:21:51;8.40;99.90
20773;DHT22;10546;50.674;4.616;2023-11-22T12:24:17;8.50;99.90
20773;DHT22;10546;50.674;4.616;2023-11-22T12:26:47;8.50;99.90
20773;DHT22;10546;50.674;4.616;2023-11-22T12:29:19;8.60;99.90
20773;DHT22;10546;50.674;4.616;2023-11-22T12:31:49;8.70;99.90
20773;DHT22;10546;50.674;4.616;2023-11-22T12:34:21;8.90;99.90
20773;DHT22;10546;50.674;4.616;2023-11-22T12:36:47;9.10;99.90
20773;DHT22;10546;50.674;4.616;2023-11-22T12:39:14;9.30;99.90
20773;DHT22;10546;50.674;4.616;2023-11-22T12:41:43;9.00;99.90
20773;DHT22;10546;50.674;4.616;2023-11-22T12:44:11;9.10;99.90
20773;DHT22;10546;50.674;4.616;2023-11-22T12:46:50;8.80;99.90
20773;DHT22;10546;50.674;4.616;2023-11-22T12:49:27;8.60;99.90
20773;DHT22;10546;50.674;4.616;2023-11-22T12:51:56;8.70;99.90
20773;DHT22;10546;50.674;4.616;2023-11-22T12:54:25;8.80;99.90
20773;DHT22;10546;50.674;4.616;2023-11-22T12:56:52;8.70;99.90
20773;DHT22;10546;50.674;4.616;2023-11-22T12:59:23;8.60;99.90
20773;DHT22;10546;50.674;4.616;2023-11-22T13:01:49;8.70;99.90
20773;DHT22;10546;50.674;4.616;2023-11-22T13:04:15;8.70;99.90
20773;DHT22;10546;50.674;4.616;2023-11-22T13:06:41;8.70;99.90
20773;DHT22;10546;50.674;4.616;2023-11-22T13:09:07;8.60;99.90
20773;DHT22;10546;50.674;4.616;2023-11-22T13:11:33;8.60;99.90
20773;DHT22;10546;50.674;4.616;2023-11-22T13:13:59;8.60;99.90
20773;DHT22;10546;50.674;4.616;2023-11-22T13:16:25;8.50;99.90
20773;DHT22;10546;50.674;4.616;2023-11-22T13:18:50;8.50;99.90
20773;DHT22;10546;50.674;4.616;2023-11-22T13:21:16;8.50;99.90
20773;DHT22;10546;50.674;4.616;2023-11-22T13:23:42;8.40;99.90
20773;DHT22;10546;50.674;4.616;2023-11-22T13:26:07;8.30;99.90
20773;DHT22;10546;50.674;4.616;2023-11-22T13:28:35;8.30;99.90
20773;DHT22;10546;50.674;4.616;2023-11-22T13:31:01;8.20;99.90
20773;DHT22;10546;50.674;4.616;2023-11-22T13:33:26;8.30;99.90
20773;DHT22;10546;50.674;4.616;2023-11-22T13:35:53;8.30;99.90
20773;DHT22;10546;50.674;4.616;2023-11-22T13:38:19;8.30;99.90
20773;DHT22;10546;50.674;4.616;2023-11-22T13:40:44;8.20;99.90
20773;DHT22;10546;50.674;4.616;2023-11-22T13:43:11;8.30;99.90
20773;DHT22;10546;50.674;4.616;2023-11-22T13:45:40;8.50;99.90
20773;DHT22;10546;50.674;4.616;2023-11-22T13:48:07;8.40;99.90
20773;DHT22;10546;50.674;4.616;2023-11-22T13:50:35;8.40;99.90
20773;DHT22;10546;50.674;4.616;2023-11-22T13:53:01;8.30;99.90
20773;DHT22;10546;50.674;4.616;2023-11-22T13:55:29;8.50;99.90
20773;DHT22;10546;50.674;4.616;2023-11-22T13:58:01;8.60;99.90
20773;DHT22;10546;50.674;4.616;2023-11-22T14:08:24;8.60;99.90
20773;DHT22;10546;50.674;4.616;2023-11-22T14:10:50;8.60;99.90
20773;DHT22;10546;50.674;4.616;2023-11-22T14:13:16;8.60;99.90
20773;DHT22;10546;50.674;4.616;2023-11-22T14:15:42;8.60;99.90
20773;DHT22;10546;50.674;4.616;2023-11-22T14:18:07;8.50;99.90
20773;DHT22;10546;50.674;4.616;2023-11-22T14:20:33;8.40;99.90
20773;DHT22;10546;50.674;4.616;2023-11-22T14:23:00;8.40;99.90
20773;DHT22;10546;50.674;4.616;2023-11-22T14:25:26;8.50;99.90
20773;DHT22;10546;50.674;4.616;2023-11-22T14:27:52;8.40;99.90
20773;DHT22;10546;50.674;4.616;2023-11-22T14:30:20;8.10;99.90
20773;DHT22;10546;50.674;4.616;2023-11-22T14:32:47;8.10;99.90
20773;DHT22;10546;50.674;4.616;2023-11-22T14:35:13;8.20;99.90
20773;DHT22;10546;50.674;4.616;2023-11-22T14:37:39;8.00;99.90
20773;DHT22;10546;50.674;4.616;2023-11-22T14:40:06;7.90;99.90
20773;DHT22;10546;50.674;4.616;2023-11-22T14:42:42;8.00;99.90
20773;DHT22;10546;50.674;4.616;2023-11-22T14:45:09;8.20;99.90
20773;DHT22;10546;50.674;4.616;2023-11-22T14:47:37;8.10;99.90
20773;DHT22;10546;50.674;4.616;2023-11-22T14:50:03;8.20;99.90
20773;DHT22;10546;50.674;4.616;2023-11-22T14:52:33;8.10;99.90
20773;DHT22;10546;50.674;4.616;2023-11-22T14:54:59;8.10;99.90
20773;DHT22;10546;50.674;4.616;2023-11-22T14:57:26;8.10;99.90
20773;DHT22;10546;50.674;4.616;2023-11-22T14:59:52;8.20;99.90
20773;DHT22;10546;50.674;4.616;2023-11-22T15:02:18;8.10;99.90
20773;DHT22;10546;50.674;4.616;2023-11-22T15:04:44;8.20;99.90
20773;DHT22;10546;50.674;4.616;2023-11-22T15:07:10;8.10;99.90
20773;DHT22;10546;50.674;4.616;2023-11-22T15:09:37;7.90;99.90
20773;DHT22;10546;50.674;4.616;2023-11-22T15:12:03;8.00;99.90
20773;DHT22;10546;50.674;4.616;2023-11-22T15:14:33;8.10;99.90
20773;DHT22;10546;50.674;4.616;2023-11-22T15:17:02;8.10;99.90
20773;DHT22;10546;50.674;4.616;2023-11-22T15:19:31;8.00;99.90
20773;DHT22;10546;50.674;4.616;2023-11-22T15:21:57;8.10;99.90
20773;DHT22;10546;50.674;4.616;2023-11-22T15:24:24;8.10;99.90
20773;DHT22;10546;50.674;4.616;2023-11-22T15:26:49;8.10;99.90
20773;DHT22;10546;50.674;4.616;2023-11-22T15:29:15;8.10;99.90
20773;DHT22;10546;50.674;4.616;2023-11-22T15:31:43;8.20;99.90
20773;DHT22;10546;50.674;4.616;2023-11-22T15:34:09;8.20;99.90
20773;DHT22;10546;50.674;4.616;2023-11-22T15:36:35;8.20;99.90
20773;DHT22;10546;50.674;4.616;2023-11-22T15:39:01;8.40;99.90
20773;DHT22;10546;50.674;4.616;2023-11-22T15:41:26;8.30;99.90
20773;DHT22;10546;50.674;4.616;2023-11-22T15:43:52;8.00;99.90
20773;DHT22;10546;50.674;4.616;2023-11-22T15:46:18;8.00;99.90
20773;DHT22;10546;50.674;4.616;2023-11-22T15:48:44;8.00;99.90
20773;DHT22;10546;50.674;4.616;2023-11-22T15:51:10;7.90;99.90
20773;DHT22;10546;50.674;4.616;2023-11-22T15:53:42;7.90;99.90
20773;DHT22;10546;50.674;4.616;2023-11-22T15:56:07;7.90;99.90
20773;DHT22;10546;50.674;4.616;2023-11-22T15:58:49;7.90;99.90
20773;DHT22;10546;50.674;4.616;2023-11-22T16:01:15;8.00;99.90
20773;DHT22;10546;50.674;4.616;2023-11-22T16:03:43;8.00;99.90
20773;DHT22;10546;50.674;4.616;2023-11-22T16:06:09;8.00;99.90
20773;DHT22;10546;50.674;4.616;2023-11-22T16:08:35;7.80;99.90
20773;DHT22;10546;50.674;4.616;2023-11-22T16:11:01;7.70;99.90
20773;DHT22;10546;50.674;4.616;2023-11-22T16:13:27;7.80;99.90
20773;DHT22;10546;50.674;4.616;2023-11-22T16:15:53;7.80;99.90
20773;DHT22;10546;50.674;4.616;2023-11-22T16:18:21;7.80;99.90
20773;DHT22;10546;50.674;4.616;2023-11-22T16:20:52;7.80;99.90
20773;DHT22;10546;50.674;4.616;2023-11-22T16:23:18;7.80;99.90
20773;DHT22;10546;50.674;4.616;2023-11-22T16:25:44;7.80;99.90
20773;DHT22;10546;50.674;4.616;2023-11-22T16:28:10;7.80;99.90
20773;DHT22;10546;50.674;4.616;2023-11-22T16:30:36;7.80;99.90
20773;DHT22;10546;50.674;4.616;2023-11-22T16:33:03;7.80;99.90
20773;DHT22;10546;50.674;4.616;2023-11-22T16:35:29;7.80;99.90
20773;DHT22;10546;50.674;4.616;2023-11-22T16:37:55;7.90;99.90
20773;DHT22;10546;50.674;4.616;2023-11-22T16:40:21;7.80;99.90
20773;DHT22;10546;50.674;4.616;2023-11-22T16:42:47;7.70;99.90
20773;DHT22;10546;50.674;4.616;2023-11-22T16:45:13;7.80;99.90
20773;DHT22;10546;50.674;4.616;2023-11-22T16:47:39;7.70;99.90
20773;DHT22;10546;50.674;4.616;2023-11-22T16:50:05;7.60;99.90
20773;DHT22;10546;50.674;4.616;2023-11-22T16:52:32;7.50;99.90
20773;DHT22;10546;50.674;4.616;2023-11-22T16:54:59;7.50;99.90
20773;DHT22;10546;50.674;4.616;2023-11-22T16:57:25;7.50;99.90
20773;DHT22;10546;50.674;4.616;2023-11-22T16:59:51;7.50;99.90
20773;DHT22;10546;50.674;4.616;2023-11-22T17:02:16;7.50;99.90
20773;DHT22;10546;50.674;4.616;2023-11-22T17:04:46;7.50;99.90
20773;DHT22;10546;50.674;4.616;2023-11-22T17:07:12;7.40;99.90
20773;DHT22;10546;50.674;4.616;2023-11-22T17:09:42;7.40;99.90
20773;DHT22;10546;50.674;4.616;2023-11-22T17:12:09;7.20;99.90
20773;DHT22;10546;50.674;4.616;2023-11-22T17:14:36;7.20;99.90
20773;DHT22;10546;50.674;4.616;2023-11-22T17:17:03;7.10;99.90
20773;DHT22;10546;50.674;4.616;2023-11-22T17:19:29;7.00;99.90
20773;DHT22;10546;50.674;4.616;2023-11-22T17:21:55;7.10;99.90
20773;DHT22;10546;50.674;4.616;2023-11-22T17:24:22;7.20;99.90
20773;DHT22;10546;50.674;4.616;2023-11-22T17:26:52;7.30;99.90
20773;DHT22;10546;50.674;4.616;2023-11-22T17:29:18;7.40;99.90
20773;DHT22;10546;50.674;4.616;2023-11-22T17:31:44;7.30;99.90
20773;DHT22;10546;50.674;4.616;2023-11-22T17:34:09;7.30;99.90
20773;DHT22;10546;50.674;4.616;2023-11-22T17:36:35;7.50;99.90
20773;DHT22;10546;50.674;4.616;2023-11-22T17:39:01;7.20;99.90
20773;DHT22;10546;50.674;4.616;2023-11-22T17:41:27;7.30;99.90
20773;DHT22;10546;50.674;4.616;2023-11-22T17:43:53;7.20;99.90
20773;DHT22;10546;50.674;4.616;2023-11-22T17:46:19;7.20;99.90
20773;DHT22;10546;50.674;4.616;2023-11-22T17:48:45;7.30;99.90
20773;DHT22;10546;50.674;4.616;2023-11-22T17:51:10;7.20;99.90
20773;DHT22;10546;50.674;4.616;2023-11-22T17:53:38;7.20;99.90
20773;DHT22;10546;50.674;4.616;2023-11-22T17:56:05;7.20;99.90
20773;DHT22;10546;50.674;4.616;2023-11-22T17:58:30;7.10;99.90
20773;DHT22;10546;50.674;4.616;2023-11-22T18:00:56;7.10;99.90
20773;DHT22;10546;50.674;4.616;2023-11-22T18:03:22;7.00;99.90
20773;DHT22;10546;50.674;4.616;2023-11-22T18:05:48;7.00;99.90
20773;DHT22;10546;50.674;4.616;2023-11-22T18:08:14;7.10;99.90
20773;DHT22;10546;50.674;4.616;2023-11-22T18:10:42;7.10;99.90
20773;DHT22;10546;50.674;4.616;2023-11-22T18:13:08;6.90;99.90
20773;DHT22;10546;50.674;4.616;2023-11-22T18:15:36;7.10;99.90
20773;DHT22;10546;50.674;4.616;2023-11-22T18:18:04;7.00;99.90
20773;DHT22;10546;50.674;4.616;2023-11-22T18:20:30;7.10;99.90
20773;DHT22;10546;50.674;4.616;2023-11-22T18:22:56;7.00;99.90
20773;DHT22;10546;50.674;4.616;2023-11-22T18:25:21;6.90;99.90
20773;DHT22;10546;50.674;4.616;2023-11-22T18:27:47;7.00;99.90
20773;DHT22;10546;50.674;4.616;2023-11-22T18:30:13;7.00;99.90
20773;DHT22;10546;50.674;4.616;2023-11-22T18:32:38;6.90;99.90
20773;DHT22;10546;50.674;4.616;2023-11-22T18:35:04;7.00;99.90
20773;DHT22;10546;50.674;4.616;2023-11-22T18:37:30;6.80;99.90
20773;DHT22;10546;50.674;4.616;2023-11-22T18:39:56;6.80;99.90
20773;DHT22;10546;50.674;4.616;2023-11-22T18:42:23;6.80;99.90
20773;DHT22;10546;50.674;4.616;2023-11-22T18:44:50;6.70;99.90
20773;DHT22;10546;50.674;4.616;2023-11-22T18:47:16;6.70;99.90
20773;DHT22;10546;50.674;4.616;2023-11-22T18:49:42;6.80;99.90
20773;DHT22;10546;50.674;4.616;2023-11-22T18:52:08;6.70;99.90
20773;DHT22;10546;50.674;4.616;2023-11-22T18:54:34;6.70;99.90
20773;DHT22;10546;50.674;4.616;2023-11-22T18:57:00;6.70;99.90
20773;DHT22;10546;50.674;4.616;2023-11-22T18:59:32;6.60;99.90
20773;DHT22;10546;50.674;4.616;2023-11-22T19:01:59;6.60;99.90
20773;DHT22;10546;50.674;4.616;2023-11-22T19:04:25;6.50;99.90
20773;DHT22;10546;50.674;4.616;2023-11-22T19:06:51;6.50;99.90
20773;DHT22;10546;50.674;4.616;2023-11-22T19:09:16;6.50;99.90
20773;DHT22;10546;50.674;4.616;2023-11-22T19:11:45;6.40;99.90
20773;DHT22;10546;50.674;4.616;2023-11-22T19:14:13;6.40;99.90
20773;DHT22;10546;50.674;4.616;2023-11-22T19:16:42;6.40;99.90
20773;DHT22;10546;50.674;4.616;2023-11-22T19:19:08;6.30;99.90
20773;DHT22;10546;50.674;4.616;2023-11-22T19:21:33;6.20;99.90
20773;DHT22;10546;50.674;4.616;2023-11-22T19:23:59;6.20;99.90
20773;DHT22;10546;50.674;4.616;2023-11-22T19:26:26;6.50;99.90
20773;DHT22;10546;50.674;4.616;2023-11-22T19:28:54;6.30;99.90
20773;DHT22;10546;50.674;4.616;2023-11-22T19:31:20;6.20;99.90
20773;DHT22;10546;50.674;4.616;2023-11-22T19:33:48;6.30;99.90
20773;DHT22;10546;50.674;4.616;2023-11-22T19:36:24;6.30;99.90
20773;DHT22;10546;50.674;4.616;2023-11-22T19:38:52;6.50;99.90
20773;DHT22;10546;50.674;4.616;2023-11-22T19:41:19;6.40;99.90
20773;DHT22;10546;50.674;4.616;2023-11-22T19:43:48;6.30;99.90
20773;DHT22;10546;50.674;4.616;2023-11-22T19:46:16;6.40;99.90
20773;DHT22;10546;50.674;4.616;2023-11-22T19:48:49;6.40;99.90
20773;DHT22;10546;50.674;4.616;2023-11-22T19:51:17;6.20;99.90
20773;DHT22;10546;50.674;4.616;2023-11-22T19:53:46;6.20;99.90
20773;DHT22;10546;50.674;4.616;2023-11-22T19:56:14;6.30;99.90
20773;DHT22;10546;50.674;4.616;2023-11-22T19:58:40;6.50;99.90
20773;DHT22;10546;50.674;4.616;2023-11-22T20:01:07;6.20;99.90
20773;DHT22;10546;50.674;4.616;2023-11-22T20:03:33;6.30;99.90
20773;DHT22;10546;50.674;4.616;2023-11-22T20:05:58;6.10;99.90
20773;DHT22;10546;50.674;4.616;2023-11-22T20:08:24;6.20;99.90
20773;DHT22;10546;50.674;4.616;2023-11-22T20:10:56;6.30;99.90
20773;DHT22;10546;50.674;4.616;2023-11-22T20:13:21;6.30;99.90
20773;DHT22;10546;50.674;4.616;2023-11-22T20:15:47;6.40;99.90
20773;DHT22;10546;50.674;4.616;2023-11-22T20:18:16;6.20;99.90
20773;DHT22;10546;50.674;4.616;2023-11-22T20:20:42;6.20;99.90
20773;DHT22;10546;50.674;4.616;2023-11-22T20:23:08;6.10;99.90
20773;DHT22;10546;50.674;4.616;2023-11-22T20:25:35;6.00;99.90
20773;DHT22;10546;50.674;4.616;2023-11-22T20:28:01;6.10;99.90
20773;DHT22;10546;50.674;4.616;2023-11-22T20:30:26;6.00;99.90
20773;DHT22;10546;50.674;4.616;2023-11-22T20:32:52;6.10;99.90
20773;DHT22;10546;50.674;4.616;2023-11-22T20:35:18;6.00;99.90
20773;DHT22;10546;50.674;4.616;2023-11-22T20:37:44;6.00;99.90
20773;DHT22;10546;50.674;4.616;2023-11-22T20:40:10;6.10;99.90
20773;DHT22;10546;50.674;4.616;2023-11-22T20:42:36;6.20;99.90
20773;DHT22;10546;50.674;4.616;2023-11-22T20:45:02;6.10;99.90
20773;DHT22;10546;50.674;4.616;2023-11-22T20:47:32;6.10;99.90
20773;DHT22;10546;50.674;4.616;2023-11-22T20:49:58;6.20;99.90
20773;DHT22;10546;50.674;4.616;2023-11-22T20:52:28;6.20;99.90
20773;DHT22;10546;50.674;4.616;2023-11-22T20:55:00;6.30;99.90
20773;DHT22;10546;50.674;4.616;2023-11-22T20:57:30;6.30;99.90
20773;DHT22;10546;50.674;4.616;2023-11-22T20:59:58;6.60;99.90
20773;DHT22;10546;50.674;4.616;2023-11-22T21:02:24;6.50;99.90
20773;DHT22;10546;50.674;4.616;2023-11-22T21:04:49;6.60;99.90
20773;DHT22;10546;50.674;4.616;2023-11-22T21:07:15;6.50;99.90
20773;DHT22;10546;50.674;4.616;2023-11-22T21:09:43;6.70;99.90
20773;DHT22;10546;50.674;4.616;2023-11-22T21:12:08;6.80;99.90
20773;DHT22;10546;50.674;4.616;2023-11-22T21:14:34;6.70;99.90
20773;DHT22;10546;50.674;4.616;2023-11-22T21:17:04;6.60;99.90
20773;DHT22;10546;50.674;4.616;2023-11-22T21:19:32;6.60;99.90
20773;DHT22;10546;50.674;4.616;2023-11-22T21:21:57;6.60;99.90
20773;DHT22;10546;50.674;4.616;2023-11-22T21:24:24;6.60;99.90
20773;DHT22;10546;50.674;4.616;2023-11-22T21:26:50;6.70;99.90
20773;DHT22;10546;50.674;4.616;2023-11-22T21:29:16;6.70;99.90
20773;DHT22;10546;50.674;4.616;2023-11-22T21:31:41;6.60;99.90
20773;DHT22;10546;50.674;4.616;2023-11-22T21:34:08;6.60;99.90
20773;DHT22;10546;50.674;4.616;2023-11-22T21:36:33;6.60;99.90
20773;DHT22;10546;50.674;4.616;2023-11-22T21:39:13;6.70;99.90
20773;DHT22;10546;50.674;4.616;2023-11-22T21:41:48;6.80;99.90
20773;DHT22;10546;50.674;4.616;2023-11-22T21:44:16;6.80;99.90
20773;DHT22;10546;50.674;4.616;2023-11-22T21:46:43;6.80;99.90
20773;DHT22;10546;50.674;4.616;2023-11-22T21:49:09;6.90;99.90
20773;DHT22;10546;50.674;4.616;2023-11-22T21:51:35;6.90;99.90
20773;DHT22;10546;50.674;4.616;2023-11-22T21:54:02;7.00;99.90
20773;DHT22;10546;50.674;4.616;2023-11-22T21:56:28;7.10;99.90
20773;DHT22;10546;50.674;4.616;2023-11-22T21:58:53;7.20;99.90
20773;DHT22;10546;50.674;4.616;2023-11-22T22:01:19;7.10;99.90
20773;DHT22;10546;50.674;4.616;2023-11-22T22:03:44;7.20;99.90
20773;DHT22;10546;50.674;4.616;2023-11-22T22:06:10;7.20;99.90
20773;DHT22;10546;50.674;4.616;2023-11-22T22:08:36;7.20;99.90
20773;DHT22;10546;50.674;4.616;2023-11-22T22:11:02;7.30;99.90
20773;DHT22;10546;50.674;4.616;2023-11-22T22:13:28;7.30;99.90
20773;DHT22;10546;50.674;4.616;2023-11-22T22:15:54;7.20;99.90
20773;DHT22;10546;50.674;4.616;2023-11-22T22:18:21;7.40;99.90
20773;DHT22;10546;50.674;4.616;2023-11-22T22:20:46;7.50;99.90
20773;DHT22;10546;50.674;4.616;2023-11-22T22:23:12;7.50;99.90
20773;DHT22;10546;50.674;4.616;2023-11-22T22:25:39;7.50;99.90
20773;DHT22;10546;50.674;4.616;2023-11-22T22:28:09;7.50;99.90
20773;DHT22;10546;50.674;4.616;2023-11-22T22:30:35;7.70;99.90
20773;DHT22;10546;50.674;4.616;2023-11-22T22:33:01;7.60;99.90
20773;DHT22;10546;50.674;4.616;2023-11-22T22:35:28;7.70;99.90
20773;DHT22;10546;50.674;4.616;2023-11-22T22:37:53;7.60;99.90
20773;DHT22;10546;50.674;4.616;2023-11-22T22:40:19;7.70;99.90
20773;DHT22;10546;50.674;4.616;2023-11-22T22:42:46;7.60;99.90
20773;DHT22;10546;50.674;4.616;2023-11-22T22:45:11;7.60;99.90
20773;DHT22;10546;50.674;4.616;2023-11-22T22:47:37;7.70;99.90
20773;DHT22;10546;50.674;4.616;2023-11-22T22:50:03;7.60;99.90
20773;DHT22;10546;50.674;4.616;2023-11-22T22:52:30;7.60;99.90
20773;DHT22;10546;50.674;4.616;2023-11-22T22:54:56;7.70;99.90